createdAt,value
2022-10-02T00:01:58.744Z,93.97
2022-10-02T00:04:41.897Z,93.95
2022-10-02T00:07:11.408Z,93.49
2022-10-02T00:09:46.701Z,93.83
2022-10-02T00:12:18.368Z,93.86
2022-10-02T00:14:46.750Z,93.62
2022-10-02T00:17:20.567Z,93.57
2022-10-02T00:19:47.104Z,93.93
2022-10-02T00:22:27.419Z,93.54
2022-10-02T00:25:09.160Z,93.51
2022-10-02T00:27:55.104Z,93.61
2022-10-02T00:30:21.959Z,93.71
2022-10-02T00:33:23.692Z,93.24
2022-10-02T00:35:57.030Z,92.91
2022-10-02T00:39:08.294Z,93.41
2022-10-02T00:42:06.099Z,93.75
2022-10-02T00:44:51.924Z,93.90
2022-10-02T00:47:30.214Z,93.79
2022-10-02T00:50:19.086Z,93.07
2022-10-02T00:52:48.396Z,93.16
2022-10-02T00:55:38.077Z,92.84
2022-10-02T00:58:29.369Z,92.56
2022-10-02T01:01:05.709Z,92.48
2022-10-02T01:03:40.930Z,92.74
2022-10-02T01:06:11.688Z,92.63
2022-10-02T01:08:38.649Z,92.70
2022-10-02T01:11:06.468Z,92.66
2022-10-02T01:13:33.226Z,93.05
2022-10-02T01:16:03.281Z,93.12
2022-10-02T01:18:31.037Z,93.26
2022-10-02T01:21:07.443Z,93.75
2022-10-02T01:23:45.653Z,93.72
2022-10-02T01:26:12.194Z,93.94
2022-10-02T01:28:38.773Z,93.86
2022-10-02T01:31:08.513Z,94.16
2022-10-02T01:33:37.023Z,94.19
2022-10-02T01:36:04.371Z,94.42
2022-10-02T01:38:31.529Z,94.62
2022-10-02T01:40:58.062Z,94.66
2022-10-02T01:43:30.504Z,94.70
2022-10-02T01:46:24.291Z,94.88
2022-10-02T01:49:25.191Z,95.01
2022-10-02T01:52:15.839Z,95.21
2022-10-02T01:55:07.967Z,95.31
2022-10-02T01:58:02.327Z,95.49
2022-10-02T02:00:57.565Z,95.67
2022-10-02T02:03:28.737Z,95.81
2022-10-02T02:06:11.135Z,95.88
2022-10-02T02:08:58.516Z,95.95
2022-10-02T02:11:28.623Z,95.91
2022-10-02T02:14:15.968Z,96.16
2022-10-02T02:16:45.244Z,95.99
2022-10-02T02:19:24.985Z,96.21
2022-10-02T02:22:05.694Z,96.21
2022-10-02T02:24:48.052Z,96.42
2022-10-02T02:27:19.764Z,96.61
2022-10-02T02:29:51.042Z,96.56
2022-10-02T02:32:22.295Z,96.31
2022-10-02T02:34:54.855Z,96.56
2022-10-02T02:37:25.397Z,96.49
2022-10-02T02:39:59.437Z,96.91
2022-10-02T02:42:31.092Z,96.95
2022-10-02T02:45:12.030Z,96.86
2022-10-02T02:47:47.724Z,96.82
2022-10-02T02:50:26.227Z,96.91
2022-10-02T02:53:25.955Z,97.03
2022-10-02T02:55:58.108Z,97.07
2022-10-02T02:58:40.619Z,97.27
2022-10-02T03:01:07.458Z,97.67
2022-10-02T03:03:34.196Z,97.42
2022-10-02T03:06:06.879Z,97.44
2022-10-02T03:08:37.430Z,97.44
2022-10-02T03:11:05.396Z,97.35
2022-10-02T03:14:02.186Z,97.44
2022-10-02T03:16:59.813Z,97.71
2022-10-02T03:20:23.088Z,97.54
2022-10-02T03:22:55.040Z,97.57
2022-10-02T03:25:37.179Z,97.53
2022-10-02T03:28:37.348Z,97.45
2022-10-02T03:31:05.915Z,97.41
2022-10-02T03:33:36.407Z,97.45
2022-10-02T03:36:04.345Z,97.44
2022-10-02T03:38:33.131Z,97.11
2022-10-02T03:40:59.937Z,97.41
2022-10-02T03:43:29.423Z,97.59
2022-10-02T03:45:55.851Z,97.41
2022-10-02T03:48:26.723Z,97.72
2022-10-02T03:50:53.272Z,98.02
2022-10-02T03:53:22.268Z,97.95
2022-10-02T03:56:02.964Z,98.00
2022-10-02T03:58:29.560Z,98.17
2022-10-02T04:01:11.718Z,98.35
2022-10-02T04:03:49.109Z,98.17
2022-10-02T04:06:34.751Z,98.09
2022-10-02T04:09:09.224Z,98.19
2022-10-02T04:11:59.351Z,97.92
2022-10-02T04:14:37.727Z,98.04
2022-10-02T04:17:10.068Z,98.02
2022-10-02T04:19:44.768Z,98.24
2022-10-02T04:22:29.912Z,98.07
2022-10-02T04:25:05.559Z,98.00
2022-10-02T04:27:50.678Z,97.94
2022-10-02T04:30:19.695Z,98.00
2022-10-02T04:32:47.495Z,97.77
2022-10-02T04:35:32.909Z,97.83
2022-10-02T04:38:17.555Z,97.71
2022-10-02T04:41:03.609Z,97.71
2022-10-02T04:43:48.561Z,97.70
2022-10-02T04:46:46.134Z,97.82
2022-10-02T04:49:29.605Z,97.44
2022-10-02T04:52:16.921Z,97.24
2022-10-02T04:54:46.096Z,97.48
2022-10-02T04:57:18.535Z,97.58
2022-10-02T05:00:11.720Z,97.45
2022-10-02T05:02:53.557Z,97.39
2022-10-02T05:05:32.149Z,97.40
2022-10-02T05:08:10.365Z,97.14
2022-10-02T05:10:58.886Z,97.12
2022-10-02T05:13:28.392Z,97.06
2022-10-02T05:16:32.117Z,97.15
2022-10-02T05:19:17.555Z,97.37
2022-10-02T05:22:17.913Z,97.53
2022-10-02T05:25:07.007Z,97.57
2022-10-02T05:27:36.533Z,98.00
2022-10-02T05:30:08.437Z,98.15
2022-10-02T05:32:50.735Z,98.44
2022-10-02T05:35:31.908Z,98.62
2022-10-02T05:38:10.454Z,98.96
2022-10-02T05:41:02.302Z,98.99
2022-10-02T05:43:31.415Z,99.34
2022-10-02T05:46:16.302Z,99.42
2022-10-02T05:48:49.149Z,99.42
2022-10-02T05:51:36.875Z,99.55
2022-10-02T05:54:15.439Z,99.54
2022-10-02T05:56:47.657Z,99.46
2022-10-02T05:59:32.523Z,99.64
2022-10-02T06:02:04.877Z,99.42
2022-10-02T06:04:40.967Z,99.49
2022-10-02T06:07:15.539Z,99.48
2022-10-02T06:10:03.221Z,99.34
2022-10-02T06:12:41.875Z,99.60
2022-10-02T06:15:19.495Z,99.68
2022-10-02T06:17:51.644Z,99.46
2022-10-02T06:20:25.513Z,99.59
2022-10-02T06:22:58.491Z,99.63
2022-10-02T06:25:36.814Z,99.66
2022-10-02T06:28:09.284Z,99.59
2022-10-02T06:30:41.397Z,99.73
2022-10-02T06:33:30.718Z,99.81
2022-10-02T06:36:25.775Z,99.54
2022-10-02T06:39:22.635Z,99.50
2022-10-02T06:42:18.678Z,99.69
2022-10-02T06:45:03.800Z,99.51
2022-10-02T06:47:49.237Z,99.62
2022-10-02T06:50:19.372Z,99.44
2022-10-02T06:53:01.085Z,99.53
2022-10-02T06:55:51.426Z,99.45
2022-10-02T06:58:49.035Z,99.20
2022-10-02T07:01:35.345Z,99.07
2022-10-02T07:04:29.862Z,99.10
2022-10-02T07:07:37.731Z,99.02
2022-10-02T07:10:17.676Z,98.58
2022-10-02T07:13:12.752Z,98.47
2022-10-02T07:15:57.759Z,98.61
2022-10-02T07:18:37.458Z,98.22
2022-10-02T07:21:15.325Z,97.96
2022-10-02T07:23:48.597Z,97.72
2022-10-02T07:26:27.996Z,97.69
2022-10-02T07:29:14.736Z,97.33
2022-10-02T07:31:56.390Z,97.31
2022-10-02T07:34:30.540Z,96.55
2022-10-02T07:37:07.988Z,96.51
2022-10-02T07:39:55.583Z,96.18
2022-10-02T07:42:57.123Z,95.86
2022-10-02T07:45:36.374Z,94.58
2022-10-02T07:48:22.110Z,93.38
2022-10-02T07:51:38.986Z,92.10
2022-10-02T07:54:27.950Z,91.24
2022-10-02T07:56:59.343Z,89.77
2022-10-02T07:59:26.770Z,88.37
2022-10-02T08:01:53.614Z,86.37
2022-10-02T08:04:33.461Z,81.54
2022-10-02T08:07:05.311Z,75.01
2022-10-02T08:09:36.477Z,74.23
2022-10-02T08:12:26.180Z,75.86
2022-10-02T08:14:55.736Z,76.92
2022-10-02T08:17:33.888Z,78.01
2022-10-02T08:20:07.134Z,78.45
2022-10-02T08:22:53.357Z,78.54
2022-10-02T08:25:31.323Z,78.53
2022-10-02T08:28:22.364Z,78.94
2022-10-02T08:30:48.829Z,79.25
2022-10-02T08:33:19.453Z,78.74
2022-10-02T08:36:28.604Z,77.58
2022-10-02T08:39:30.410Z,76.45
2022-10-02T08:42:15.154Z,74.08
2022-10-02T08:45:02.824Z,70.57
2022-10-02T08:48:05.154Z,70.43
2022-10-02T08:51:08.441Z,68.90
2022-10-02T08:53:40.795Z,68.77
2022-10-02T08:56:32.283Z,69.11
2022-10-02T08:59:12.036Z,70.61
2022-10-02T09:01:47.037Z,71.35
2022-10-02T09:04:40.892Z,69.72
2022-10-02T09:07:35.222Z,70.53
2022-10-02T09:10:38.901Z,68.02
2022-10-02T09:13:28.801Z,67.04
2022-10-02T09:16:26.411Z,67.92
2022-10-02T09:19:11.028Z,67.87
2022-10-02T09:21:57.252Z,69.31
2022-10-02T09:24:48.474Z,71.50
2022-10-02T09:27:59.287Z,72.73
2022-10-02T09:31:12.775Z,73.33
2022-10-02T09:33:59.387Z,74.78
2022-10-02T09:37:08.727Z,75.80
2022-10-02T09:39:39.280Z,75.24
2022-10-02T09:42:20.947Z,76.40
2022-10-02T09:45:11.314Z,76.80
2022-10-02T09:48:20.722Z,75.41
2022-10-02T09:51:26.329Z,75.12
2022-10-02T09:54:11.527Z,73.61
2022-10-02T09:57:00.348Z,73.57
2022-10-02T09:59:54.852Z,74.07
2022-10-02T10:02:46.179Z,73.77
2022-10-02T10:05:35.085Z,74.43
2022-10-02T10:08:29.871Z,74.61
2022-10-02T10:11:00.683Z,73.92
2022-10-02T10:13:27.177Z,75.05
2022-10-02T10:16:19.254Z,74.60
2022-10-02T10:19:23.858Z,74.88
2022-10-02T10:22:31.272Z,75.54
2022-10-02T10:25:21.884Z,74.94
2022-10-02T10:28:19.555Z,75.03
2022-10-02T10:31:16.904Z,74.73
2022-10-02T10:33:54.413Z,74.00
2022-10-02T10:37:01.532Z,73.39
2022-10-02T10:39:43.343Z,73.13
2022-10-02T10:42:50.153Z,72.38
2022-10-02T10:45:34.672Z,70.90
2022-10-02T10:48:35.101Z,71.45
2022-10-02T10:51:14.162Z,72.37
2022-10-02T10:54:08.612Z,71.96
2022-10-02T10:56:42.789Z,71.62
2022-10-02T10:59:42.503Z,72.44
2022-10-02T11:02:46.707Z,72.87
2022-10-02T11:05:36.417Z,73.46
2022-10-02T11:08:24.348Z,73.30
2022-10-02T11:11:09.804Z,73.42
2022-10-02T11:13:41.767Z,73.86
2022-10-02T11:16:37.293Z,74.47
2022-10-02T11:19:21.674Z,74.58
2022-10-02T11:22:01.140Z,74.43
2022-10-02T11:24:50.831Z,74.31
2022-10-02T11:27:57.415Z,74.90
2022-10-02T11:30:32.885Z,73.32
2022-10-02T11:33:14.348Z,69.48
2022-10-02T11:35:59.019Z,68.34
2022-10-02T11:38:40.564Z,69.12
2022-10-02T11:41:25.556Z,70.24
2022-10-02T11:44:33.762Z,70.82
2022-10-02T11:47:18.207Z,69.83
2022-10-02T11:50:14.716Z,69.49
2022-10-02T11:53:03.059Z,70.14
2022-10-02T11:55:49.467Z,67.77
2022-10-02T11:58:45.588Z,68.62
2022-10-02T12:01:24.300Z,67.20
2022-10-02T12:04:29.736Z,67.52
2022-10-02T12:07:05.372Z,68.99
2022-10-02T12:09:55.808Z,69.71
2022-10-02T12:12:42.141Z,68.78
2022-10-02T12:15:24.051Z,67.59
2022-10-02T12:18:38.608Z,67.34
2022-10-02T12:21:44.934Z,66.48
2022-10-02T12:24:47.355Z,63.50
2022-10-02T12:27:23.202Z,65.60
2022-10-02T12:29:55.762Z,65.69
2022-10-02T12:32:59.644Z,66.00
2022-10-02T12:35:40.278Z,65.98
2022-10-02T12:38:35.437Z,66.48
2022-10-02T12:41:10.899Z,66.02
2022-10-02T12:44:11.249Z,65.86
2022-10-02T12:46:46.435Z,65.63
2022-10-02T12:49:47.235Z,66.23
2022-10-02T12:52:35.275Z,65.64
2022-10-02T12:55:45.782Z,65.72
2022-10-02T12:58:31.588Z,64.97
2022-10-02T13:01:43.189Z,65.22
2022-10-02T13:04:39.256Z,64.33
2022-10-02T13:07:14.676Z,63.73
2022-10-02T13:09:47.373Z,63.05
2022-10-02T13:12:32.841Z,63.21
2022-10-02T13:15:06.339Z,62.16
2022-10-02T13:17:46.906Z,60.70
2022-10-02T13:20:28.355Z,61.35
2022-10-02T13:23:19.709Z,61.21
2022-10-02T13:26:13.250Z,61.16
2022-10-02T13:29:03.029Z,59.75
2022-10-02T13:31:49.144Z,58.47
2022-10-02T13:34:26.255Z,58.01
2022-10-02T13:37:14.132Z,58.30
2022-10-02T13:40:00.867Z,59.97
2022-10-02T13:43:03.406Z,60.82
2022-10-02T13:45:40.934Z,59.93
2022-10-02T13:48:34.383Z,60.56
2022-10-02T13:51:06.295Z,60.41
2022-10-02T13:53:56.148Z,60.76
2022-10-02T13:56:29.507Z,60.35
2022-10-02T13:59:07.796Z,60.35
2022-10-02T14:02:16.272Z,59.24
2022-10-02T14:04:51.968Z,57.10
2022-10-02T14:07:54.280Z,57.69
2022-10-02T14:10:37.099Z,57.65
2022-10-02T14:13:18.203Z,57.20
2022-10-02T14:16:37.034Z,58.23
2022-10-02T14:19:24.491Z,57.76
2022-10-02T14:22:20.599Z,55.26
2022-10-02T14:25:14.681Z,55.34
2022-10-02T14:28:02.945Z,55.54
2022-10-02T14:31:13.439Z,57.41
2022-10-02T14:33:59.061Z,55.62
2022-10-02T14:36:31.757Z,56.06
2022-10-02T14:39:27.577Z,55.91
2022-10-02T14:41:57.005Z,55.05
2022-10-02T14:44:39.538Z,55.01
2022-10-02T14:47:30.026Z,54.00
2022-10-02T14:50:13.872Z,54.18
2022-10-02T14:53:11.143Z,55.25
2022-10-02T14:55:49.712Z,54.93
2022-10-02T14:58:22.813Z,55.00
2022-10-02T15:01:06.511Z,55.53
2022-10-02T15:04:12.660Z,55.65
2022-10-02T15:06:59.087Z,55.80
2022-10-02T15:09:48.297Z,56.29
2022-10-02T15:12:35.783Z,55.77
2022-10-02T15:15:17.680Z,55.84
2022-10-02T15:18:20.107Z,56.21
2022-10-02T15:20:49.543Z,56.16
2022-10-02T15:23:45.960Z,55.88
2022-10-02T15:26:34.264Z,55.43
2022-10-02T15:29:32.632Z,55.46
2022-10-02T15:32:24.645Z,55.45
2022-10-02T15:35:19.668Z,56.00
2022-10-02T15:38:14.339Z,55.69
2022-10-02T15:40:59.675Z,56.03
2022-10-02T15:43:40.006Z,56.33
2022-10-02T15:46:23.373Z,56.55
2022-10-02T15:48:58.777Z,57.15
2022-10-02T15:51:50.234Z,57.14
2022-10-02T15:54:21.680Z,57.19
2022-10-02T15:56:58.256Z,57.58
2022-10-02T15:59:24.705Z,57.94
2022-10-02T16:01:57.420Z,58.24
2022-10-02T16:04:34.698Z,58.28
2022-10-02T16:07:45.079Z,58.39
2022-10-02T16:10:18.363Z,59.00
2022-10-02T16:13:01.352Z,59.04
2022-10-02T16:15:51.991Z,59.04
2022-10-02T16:18:26.300Z,59.29
2022-10-02T16:21:06.613Z,58.97
2022-10-02T16:24:02.421Z,60.20
2022-10-02T16:26:43.067Z,60.66
2022-10-02T16:29:44.765Z,61.28
2022-10-02T16:32:31.145Z,62.21
2022-10-02T16:35:19.978Z,62.30
2022-10-02T16:38:02.111Z,63.09
2022-10-02T16:40:58.106Z,63.79
2022-10-02T16:43:39.693Z,64.22
2022-10-02T16:46:40.117Z,64.90
2022-10-02T16:49:33.665Z,65.23
2022-10-02T16:52:25.663Z,65.86
2022-10-02T16:55:04.044Z,66.52
2022-10-02T16:57:54.702Z,66.90
2022-10-02T17:00:52.354Z,67.41
2022-10-02T17:04:00.907Z,67.78
2022-10-02T17:06:43.784Z,68.24
2022-10-02T17:09:53.635Z,68.50
2022-10-02T17:12:27.675Z,68.73
2022-10-02T17:15:07.625Z,69.33
2022-10-02T17:17:51.139Z,69.42
2022-10-02T17:20:26.260Z,69.81
2022-10-02T17:23:14.557Z,70.01
2022-10-02T17:26:16.435Z,70.14
2022-10-02T17:28:53.329Z,70.59
2022-10-02T17:31:41.898Z,71.05
2022-10-02T17:34:33.079Z,71.07
2022-10-02T17:37:02.377Z,71.55
2022-10-02T17:39:59.974Z,72.24
2022-10-02T17:42:31.475Z,72.17
2022-10-02T17:45:29.345Z,72.16
2022-10-02T17:48:24.036Z,72.74
2022-10-02T17:51:24.472Z,72.73
2022-10-02T17:54:35.988Z,73.91
2022-10-02T17:57:22.935Z,73.96
2022-10-02T17:59:52.069Z,73.91
2022-10-02T18:02:46.284Z,74.45
2022-10-02T18:05:51.284Z,74.94
2022-10-02T18:08:36.709Z,74.82
2022-10-02T18:11:11.136Z,75.71
2022-10-02T18:13:59.615Z,76.04
2022-10-02T18:16:33.261Z,76.33
2022-10-02T18:19:21.883Z,76.54
2022-10-02T18:21:54.604Z,76.70
2022-10-02T18:24:56.135Z,76.66
2022-10-02T18:27:37.784Z,76.95
2022-10-02T18:30:19.306Z,77.27
2022-10-02T18:33:07.417Z,77.99
2022-10-02T18:35:54.918Z,78.45
2022-10-02T18:38:45.324Z,79.12
2022-10-02T18:41:35.988Z,78.96
2022-10-02T18:44:09.285Z,79.28
2022-10-02T18:46:50.416Z,79.26
2022-10-02T18:49:16.861Z,79.14
2022-10-02T18:51:46.451Z,79.14
2022-10-02T18:54:19.913Z,79.86
2022-10-02T18:56:57.552Z,79.67
2022-10-02T19:00:02.842Z,80.43
2022-10-02T19:02:50.370Z,80.72
2022-10-02T19:05:29.937Z,80.75
2022-10-02T19:08:13.088Z,81.10
2022-10-02T19:10:44.747Z,80.83
2022-10-02T19:13:22.294Z,81.17
2022-10-02T19:15:54.433Z,81.14
2022-10-02T19:18:23.838Z,81.13
2022-10-02T19:20:58.532Z,81.46
2022-10-02T19:23:52.492Z,81.20
2022-10-02T19:26:23.379Z,81.49
2022-10-02T19:29:05.437Z,81.69
2022-10-02T19:31:39.771Z,82.28
2022-10-02T19:34:17.716Z,82.51
2022-10-02T19:36:52.141Z,82.15
2022-10-02T19:39:30.704Z,82.51
2022-10-02T19:42:00.703Z,82.69
2022-10-02T19:44:34.844Z,83.03
2022-10-02T19:47:12.167Z,82.87
2022-10-02T19:49:40.594Z,83.26
2022-10-02T19:52:37.935Z,83.40
2022-10-02T19:55:19.122Z,83.22
2022-10-02T19:57:51.962Z,82.95
2022-10-02T20:00:19.919Z,83.09
2022-10-02T20:02:49.196Z,83.03
2022-10-02T20:05:20.757Z,83.26
2022-10-02T20:07:54.235Z,83.55
2022-10-02T20:10:29.177Z,83.76
2022-10-02T20:13:14.188Z,83.73
2022-10-02T20:16:12.053Z,84.00
2022-10-02T20:18:38.830Z,83.99
2022-10-02T20:21:23.487Z,84.05
2022-10-02T20:23:56.780Z,83.83
2022-10-02T20:26:27.814Z,83.98
2022-10-02T20:29:06.138Z,84.27
2022-10-02T20:31:47.186Z,84.74
2022-10-02T20:34:25.160Z,84.52
2022-10-02T20:36:58.864Z,84.44
2022-10-02T20:39:32.374Z,84.42
2022-10-02T20:42:10.586Z,84.82
2022-10-02T20:44:37.957Z,85.16
2022-10-02T20:47:27.013Z,85.18
2022-10-02T20:50:21.531Z,85.22
2022-10-02T20:53:02.912Z,85.10
2022-10-02T20:56:04.647Z,85.09
2022-10-02T20:59:07.907Z,85.25
2022-10-02T21:01:44.180Z,85.06
2022-10-02T21:04:44.763Z,85.45
2022-10-02T21:07:19.484Z,85.30
2022-10-02T21:10:05.427Z,85.57
2022-10-02T21:12:47.053Z,85.41
2022-10-02T21:15:28.743Z,85.48
2022-10-02T21:18:34.301Z,85.24
2022-10-02T21:21:39.784Z,85.72
2022-10-02T21:24:25.168Z,85.61
2022-10-02T21:27:27.825Z,86.16
2022-10-02T21:30:14.646Z,86.10
2022-10-02T21:32:47.822Z,85.78
2022-10-02T21:35:51.375Z,85.69
2022-10-02T21:38:31.020Z,85.75
2022-10-02T21:41:40.774Z,85.70
2022-10-02T21:44:25.573Z,85.44
2022-10-02T21:47:27.600Z,85.70
2022-10-02T21:50:12.975Z,85.84
2022-10-02T21:53:01.010Z,85.84
2022-10-02T21:55:53.275Z,86.18
2022-10-02T21:58:50.276Z,86.15
2022-10-02T22:01:25.464Z,85.95
2022-10-02T22:04:00.870Z,86.08
2022-10-02T22:06:36.687Z,85.94
2022-10-02T22:09:51.352Z,86.16
2022-10-02T22:12:49.977Z,86.36
2022-10-02T22:15:26.651Z,86.35
2022-10-02T22:18:01.436Z,86.14
2022-10-02T22:21:01.397Z,86.78
2022-10-02T22:23:53.472Z,86.59
2022-10-02T22:26:22.656Z,86.34
2022-10-02T22:28:54.949Z,86.83
2022-10-02T22:31:27.526Z,87.08
2022-10-02T22:34:22.362Z,86.84
2022-10-02T22:37:10.822Z,87.04
2022-10-02T22:39:42.700Z,86.84
2022-10-02T22:42:18.538Z,87.14
2022-10-02T22:45:10.807Z,87.01
2022-10-02T22:48:10.519Z,87.30
2022-10-02T22:50:48.055Z,87.14
2022-10-02T22:53:39.424Z,87.38
2022-10-02T22:56:21.289Z,87.67
2022-10-02T22:59:06.553Z,87.66
2022-10-02T23:01:48.674Z,87.76
2022-10-02T23:04:44.327Z,87.25
2022-10-02T23:07:17.560Z,87.53
2022-10-02T23:09:44.006Z,87.70
2022-10-02T23:12:19.367Z,87.23
2022-10-02T23:15:05.337Z,87.76
2022-10-02T23:17:50.383Z,87.75
2022-10-02T23:20:27.099Z,87.78
2022-10-02T23:23:01.243Z,87.30
2022-10-02T23:25:41.224Z,86.98
2022-10-02T23:28:34.050Z,86.87
2022-10-02T23:31:30.124Z,86.97
2022-10-02T23:33:59.669Z,86.86
2022-10-02T23:36:44.372Z,86.58
2022-10-02T23:39:35.471Z,86.91
2022-10-02T23:42:05.972Z,87.05
2022-10-02T23:44:50.049Z,87.24
2022-10-02T23:47:31.880Z,87.02
2022-10-02T23:49:59.832Z,87.10
2022-10-02T23:52:43.723Z,87.86
2022-10-02T23:55:22.152Z,87.32
2022-10-02T23:58:14.141Z,87.51
